Kentucky Observed Data For Previous 48 Hours

Caption
Day and Hour Reservoir Elevation (behind dam)* Tailwater Elevation (below dam)* Average Hourly Discharge*
9/21/2017 1 AM CDT 355.38 303.15 31,337
9/21/2017 2 AM CDT 355.37 303.17 31,362
9/21/2017 3 AM CDT 355.39 303.22 31,410
9/21/2017 4 AM CDT 355.40 303.12 31,375
9/21/2017 5 AM CDT 355.41 303.12 31,376
9/21/2017 6 AM CDT 355.42 303.12 31,384
9/21/2017 7 AM CDT 355.44 303.06 31,287
9/21/2017 8 AM CDT 355.45 302.97 31,321
9/21/2017 9 AM CDT 355.45 302.91 32,459
9/21/2017 10 AM CDT 355.46 302.90 31,723
9/21/2017 11 AM CDT 355.45 302.79 31,345
9/21/2017 12 PM CDT 355.43 302.78 31,252
9/21/2017 1 PM CDT 355.41 302.68 31,281
9/21/2017 2 PM CDT 355.39 302.56 31,321
9/21/2017 3 PM CDT 355.37 302.52 31,272
9/21/2017 4 PM CDT 355.36 302.55 31,231
9/21/2017 5 PM CDT 355.35 302.45 31,164
9/21/2017 6 PM CDT 355.38 302.53 31,107
9/21/2017 7 PM CDT 355.38 302.46 31,135
9/21/2017 8 PM CDT 355.43 302.50 31,049
9/21/2017 9 PM CDT 355.47 302.44 30,950
9/21/2017 10 PM CDT 355.48 302.43 30,957
9/21/2017 11 PM CDT 355.49 302.37 30,949
9/22/2017 12 AM CDT 355.49 302.29 30,850
9/22/2017 1 AM CDT 355.50 302.29 30,846
9/22/2017 2 AM CDT 355.52 302.15 30,783
9/22/2017 3 AM CDT 355.51 301.92 30,751
9/22/2017 4 AM CDT 355.52 301.79 30,611
9/22/2017 5 AM CDT 355.54 301.63 30,604
9/22/2017 6 AM CDT 355.56 301.60 30,576
9/22/2017 7 AM CDT 355.57 301.49 30,428
9/22/2017 8 AM CDT 355.58 301.36 30,275
9/22/2017 9 AM CDT 355.59 301.25 30,254
9/22/2017 10 AM CDT 355.59 301.16 30,268
9/22/2017 11 AM CDT 355.56 301.23 30,155
9/22/2017 12 PM CDT 355.55 300.93 30,180
9/22/2017 1 PM CDT 355.55 300.93 30,054
9/22/2017 2 PM CDT 355.55 300.79 30,017
9/22/2017 3 PM CDT 355.52 300.78 29,964
9/22/2017 4 PM CDT 355.51 300.73 29,977
9/22/2017 5 PM CDT 355.50 300.74 29,900
9/22/2017 6 PM CDT 355.49 300.84 29,922
9/22/2017 7 PM CDT 355.49 300.96 29,956
9/22/2017 8 PM CDT 355.50 301.16 30,028
9/22/2017 9 PM CDT 355.50 301.54 30,206
9/22/2017 10 PM CDT 355.50 301.80 30,290
9/22/2017 11 PM CDT 355.50 301.86 30,474
9/23/2017 12 AM CDT 355.51 302.03 30,583
9/23/2017 1 AM CDT 355.51 302.50 32,715
9/23/2017 2 AM CDT 355.51 302.79 33,542

Elevations are in feet above sea level. Discharges are in cubic feet per second and are reported at the end of the hour.